sensor_id;sensor_type;location;lat;lon;timestamp;P1;durP1;ratioP1;P2;durP2;ratioP2
28766;SDS011;15921;52.034;20.650;2022-10-16T00:00:35;16.33;;;11.05;;
28766;SDS011;15921;52.034;20.650;2022-10-16T00:03:01;18.25;;;10.68;;
28766;SDS011;15921;52.034;20.650;2022-10-16T00:05:28;18.17;;;10.60;;
28766;SDS011;15921;52.034;20.650;2022-10-16T00:07:54;18.60;;;10.35;;
28766;SDS011;15921;52.034;20.650;2022-10-16T00:10:19;19.15;;;10.65;;
28766;SDS011;15921;52.034;20.650;2022-10-16T00:12:45;17.90;;;10.63;;
28766;SDS011;15921;52.034;20.650;2022-10-16T00:15:11;21.77;;;12.02;;
28766;SDS011;15921;52.034;20.650;2022-10-16T00:17:37;19.35;;;11.70;;
28766;SDS011;15921;52.034;20.650;2022-10-16T00:20:03;18.33;;;11.40;;
28766;SDS011;15921;52.034;20.650;2022-10-16T00:22:29;20.42;;;12.23;;
28766;SDS011;15921;52.034;20.650;2022-10-16T00:24:55;20.88;;;11.93;;
28766;SDS011;15921;52.034;20.650;2022-10-16T00:27:21;19.65;;;11.88;;
28766;SDS011;15921;52.034;20.650;2022-10-16T00:29:50;25.73;;;11.63;;
28766;SDS011;15921;52.034;20.650;2022-10-16T00:32:16;21.58;;;11.55;;
28766;SDS011;15921;52.034;20.650;2022-10-16T00:34:45;20.30;;;11.80;;
28766;SDS011;15921;52.034;20.650;2022-10-16T00:37:13;23.58;;;12.18;;
28766;SDS011;15921;52.034;20.650;2022-10-16T00:39:40;24.13;;;12.70;;
28766;SDS011;15921;52.034;20.650;2022-10-16T00:42:06;22.35;;;12.32;;
28766;SDS011;15921;52.034;20.650;2022-10-16T00:47:08;22.65;;;12.90;;
28766;SDS011;15921;52.034;20.650;2022-10-16T00:49:35;23.95;;;13.40;;
28766;SDS011;15921;52.034;20.650;2022-10-16T00:52:01;22.02;;;13.35;;
28766;SDS011;15921;52.034;20.650;2022-10-16T00:54:28;26.50;;;13.18;;
28766;SDS011;15921;52.034;20.650;2022-10-16T00:56:56;22.70;;;13.07;;
28766;SDS011;15921;52.034;20.650;2022-10-16T00:59:27;30.58;;;14.65;;
28766;SDS011;15921;52.034;20.650;2022-10-16T01:01:55;26.83;;;13.65;;
28766;SDS011;15921;52.034;20.650;2022-10-16T01:04:23;27.80;;;14.95;;
28766;SDS011;15921;52.034;20.650;2022-10-16T01:12:23;26.08;;;13.38;;
28766;SDS011;15921;52.034;20.650;2022-10-16T01:18:08;25.08;;;13.57;;
28766;SDS011;15921;52.034;20.650;2022-10-16T01:20:47;26.25;;;14.52;;
28766;SDS011;15921;52.034;20.650;2022-10-16T01:28:32;23.10;;;14.20;;
28766;SDS011;15921;52.034;20.650;2022-10-16T01:31:05;24.83;;;14.40;;
28766;SDS011;15921;52.034;20.650;2022-10-16T01:33:39;28.88;;;14.68;;
28766;SDS011;15921;52.034;20.650;2022-10-16T01:36:13;27.13;;;13.85;;
28766;SDS011;15921;52.034;20.650;2022-10-16T01:38:43;28.20;;;15.30;;
28766;SDS011;15921;52.034;20.650;2022-10-16T01:41:20;23.42;;;13.63;;
28766;SDS011;15921;52.034;20.650;2022-10-16T01:46:23;23.98;;;13.95;;
28766;SDS011;15921;52.034;20.650;2022-10-16T01:48:51;25.30;;;13.73;;
28766;SDS011;15921;52.034;20.650;2022-10-16T01:51:17;22.25;;;13.90;;
28766;SDS011;15921;52.034;20.650;2022-10-16T01:53:50;23.33;;;13.30;;
28766;SDS011;15921;52.034;20.650;2022-10-16T01:56:19;23.35;;;13.50;;
28766;SDS011;15921;52.034;20.650;2022-10-16T01:58:52;23.45;;;14.32;;
28766;SDS011;15921;52.034;20.650;2022-10-16T02:01:26;28.38;;;13.95;;
28766;SDS011;15921;52.034;20.650;2022-10-16T02:03:54;27.08;;;14.23;;
28766;SDS011;15921;52.034;20.650;2022-10-16T02:06:22;25.50;;;15.05;;
28766;SDS011;15921;52.034;20.650;2022-10-16T02:08:50;25.40;;;14.73;;
28766;SDS011;15921;52.034;20.650;2022-10-16T02:11:15;24.20;;;13.13;;
28766;SDS011;15921;52.034;20.650;2022-10-16T02:16:40;26.55;;;14.82;;
28766;SDS011;15921;52.034;20.650;2022-10-16T02:19:11;26.75;;;15.23;;
28766;SDS011;15921;52.034;20.650;2022-10-16T02:29:49;27.17;;;14.30;;
28766;SDS011;15921;52.034;20.650;2022-10-16T02:32:23;25.58;;;15.35;;
28766;SDS011;15921;52.034;20.650;2022-10-16T02:34:53;26.40;;;15.18;;
28766;SDS011;15921;52.034;20.650;2022-10-16T02:37:19;31.55;;;15.20;;
28766;SDS011;15921;52.034;20.650;2022-10-16T02:39:46;26.35;;;14.10;;
28766;SDS011;15921;52.034;20.650;2022-10-16T02:42:14;27.75;;;15.90;;
28766;SDS011;15921;52.034;20.650;2022-10-16T02:44:42;23.15;;;14.15;;
28766;SDS011;15921;52.034;20.650;2022-10-16T02:47:08;27.63;;;15.82;;
28766;SDS011;15921;52.034;20.650;2022-10-16T02:49:34;23.65;;;14.55;;
28766;SDS011;15921;52.034;20.650;2022-10-16T02:52:00;25.20;;;15.43;;
28766;SDS011;15921;52.034;20.650;2022-10-16T02:54:25;26.55;;;15.30;;
28766;SDS011;15921;52.034;20.650;2022-10-16T02:56:51;23.00;;;14.38;;
28766;SDS011;15921;52.034;20.650;2022-10-16T02:59:17;22.77;;;14.68;;
28766;SDS011;15921;52.034;20.650;2022-10-16T03:01:43;31.52;;;15.00;;
28766;SDS011;15921;52.034;20.650;2022-10-16T03:04:08;25.40;;;14.80;;
28766;SDS011;15921;52.034;20.650;2022-10-16T03:06:34;37.92;;;15.73;;
28766;SDS011;15921;52.034;20.650;2022-10-16T03:09:00;23.60;;;15.02;;
28766;SDS011;15921;52.034;20.650;2022-10-16T03:11:26;29.85;;;15.35;;
28766;SDS011;15921;52.034;20.650;2022-10-16T03:13:53;29.77;;;15.00;;
28766;SDS011;15921;52.034;20.650;2022-10-16T03:16:19;25.52;;;14.52;;
28766;SDS011;15921;52.034;20.650;2022-10-16T03:18:47;27.88;;;15.85;;
28766;SDS011;15921;52.034;20.650;2022-10-16T03:21:14;25.85;;;15.23;;
28766;SDS011;15921;52.034;20.650;2022-10-16T03:23:40;25.67;;;15.25;;
28766;SDS011;15921;52.034;20.650;2022-10-16T03:26:06;27.23;;;14.93;;
28766;SDS011;15921;52.034;20.650;2022-10-16T03:28:31;31.33;;;16.73;;
28766;SDS011;15921;52.034;20.650;2022-10-16T03:30:57;24.55;;;15.13;;
28766;SDS011;15921;52.034;20.650;2022-10-16T03:33:23;24.60;;;15.55;;
28766;SDS011;15921;52.034;20.650;2022-10-16T03:35:52;25.85;;;15.90;;
28766;SDS011;15921;52.034;20.650;2022-10-16T03:38:18;27.92;;;15.18;;
28766;SDS011;15921;52.034;20.650;2022-10-16T03:40:45;33.47;;;16.23;;
28766;SDS011;15921;52.034;20.650;2022-10-16T03:43:11;27.38;;;15.80;;
28766;SDS011;15921;52.034;20.650;2022-10-16T03:45:36;26.00;;;15.35;;
28766;SDS011;15921;52.034;20.650;2022-10-16T03:48:02;26.63;;;15.82;;
28766;SDS011;15921;52.034;20.650;2022-10-16T03:50:28;29.90;;;16.30;;
28766;SDS011;15921;52.034;20.650;2022-10-16T03:52:54;27.05;;;16.58;;
28766;SDS011;15921;52.034;20.650;2022-10-16T03:55:20;28.20;;;16.05;;
28766;SDS011;15921;52.034;20.650;2022-10-16T03:57:45;28.20;;;16.73;;
28766;SDS011;15921;52.034;20.650;2022-10-16T04:00:11;25.08;;;15.50;;
28766;SDS011;15921;52.034;20.650;2022-10-16T04:02:37;24.90;;;16.58;;
28766;SDS011;15921;52.034;20.650;2022-10-16T04:05:03;27.65;;;16.58;;
28766;SDS011;15921;52.034;20.650;2022-10-16T04:07:30;26.90;;;16.50;;
28766;SDS011;15921;52.034;20.650;2022-10-16T04:09:55;30.45;;;17.48;;
28766;SDS011;15921;52.034;20.650;2022-10-16T04:12:22;28.23;;;15.90;;
28766;SDS011;15921;52.034;20.650;2022-10-16T04:14:48;26.15;;;14.75;;
28766;SDS011;15921;52.034;20.650;2022-10-16T04:17:14;26.45;;;16.20;;
28766;SDS011;15921;52.034;20.650;2022-10-16T04:19:39;31.20;;;17.63;;
28766;SDS011;15921;52.034;20.650;2022-10-16T04:22:05;30.02;;;16.92;;
28766;SDS011;15921;52.034;20.650;2022-10-16T04:24:31;31.75;;;17.33;;
28766;SDS011;15921;52.034;20.650;2022-10-16T04:26:56;26.98;;;16.77;;
28766;SDS011;15921;52.034;20.650;2022-10-16T04:29:22;28.45;;;17.00;;
28766;SDS011;15921;52.034;20.650;2022-10-16T04:31:48;29.02;;;17.75;;
28766;SDS011;15921;52.034;20.650;2022-10-16T04:34:14;31.52;;;16.95;;
28766;SDS011;15921;52.034;20.650;2022-10-16T04:36:40;25.88;;;16.17;;
28766;SDS011;15921;52.034;20.650;2022-10-16T04:39:05;29.88;;;17.33;;
28766;SDS011;15921;52.034;20.650;2022-10-16T04:41:31;27.10;;;17.08;;
28766;SDS011;15921;52.034;20.650;2022-10-16T04:43:57;35.67;;;18.20;;
28766;SDS011;15921;52.034;20.650;2022-10-16T04:46:22;30.20;;;17.02;;
28766;SDS011;15921;52.034;20.650;2022-10-16T04:48:48;28.88;;;16.92;;
28766;SDS011;15921;52.034;20.650;2022-10-16T04:51:14;31.20;;;17.92;;
28766;SDS011;15921;52.034;20.650;2022-10-16T04:53:39;28.50;;;17.05;;
28766;SDS011;15921;52.034;20.650;2022-10-16T04:56:05;31.45;;;17.05;;
28766;SDS011;15921;52.034;20.650;2022-10-16T04:58:31;27.65;;;16.75;;
28766;SDS011;15921;52.034;20.650;2022-10-16T05:00:56;33.30;;;17.98;;
28766;SDS011;15921;52.034;20.650;2022-10-16T05:03:22;30.15;;;16.63;;
28766;SDS011;15921;52.034;20.650;2022-10-16T05:05:48;28.23;;;17.33;;
28766;SDS011;15921;52.034;20.650;2022-10-16T05:08:14;32.22;;;16.48;;
28766;SDS011;15921;52.034;20.650;2022-10-16T05:10:41;28.83;;;16.63;;
28766;SDS011;15921;52.034;20.650;2022-10-16T05:13:08;32.80;;;18.88;;
28766;SDS011;15921;52.034;20.650;2022-10-16T05:15:34;34.88;;;19.20;;
28766;SDS011;15921;52.034;20.650;2022-10-16T05:17:59;30.98;;;18.00;;
28766;SDS011;15921;52.034;20.650;2022-10-16T05:20:25;37.65;;;19.17;;
28766;SDS011;15921;52.034;20.650;2022-10-16T05:22:51;27.95;;;18.23;;
28766;SDS011;15921;52.034;20.650;2022-10-16T05:25:17;30.75;;;17.55;;
28766;SDS011;15921;52.034;20.650;2022-10-16T05:27:43;36.35;;;19.13;;
28766;SDS011;15921;52.034;20.650;2022-10-16T05:30:12;29.02;;;18.05;;
28766;SDS011;15921;52.034;20.650;2022-10-16T05:32:38;30.63;;;18.23;;
28766;SDS011;15921;52.034;20.650;2022-10-16T05:35:03;31.88;;;18.83;;
28766;SDS011;15921;52.034;20.650;2022-10-16T05:37:29;30.75;;;18.90;;
28766;SDS011;15921;52.034;20.650;2022-10-16T05:39:55;30.60;;;18.58;;
28766;SDS011;15921;52.034;20.650;2022-10-16T05:42:21;34.67;;;18.77;;
28766;SDS011;15921;52.034;20.650;2022-10-16T05:44:46;32.90;;;18.85;;
28766;SDS011;15921;52.034;20.650;2022-10-16T05:47:12;32.88;;;18.65;;
28766;SDS011;15921;52.034;20.650;2022-10-16T05:49:39;32.50;;;18.00;;
28766;SDS011;15921;52.034;20.650;2022-10-16T05:52:05;27.55;;;17.48;;
28766;SDS011;15921;52.034;20.650;2022-10-16T05:54:30;32.17;;;18.90;;
28766;SDS011;15921;52.034;20.650;2022-10-16T05:56:56;32.63;;;18.17;;
28766;SDS011;15921;52.034;20.650;2022-10-16T05:59:22;35.80;;;17.52;;
28766;SDS011;15921;52.034;20.650;2022-10-16T06:01:47;32.72;;;16.35;;
28766;SDS011;15921;52.034;20.650;2022-10-16T06:04:13;28.50;;;16.52;;
28766;SDS011;15921;52.034;20.650;2022-10-16T06:06:39;27.10;;;16.45;;
28766;SDS011;15921;52.034;20.650;2022-10-16T06:09:05;27.92;;;16.27;;
28766;SDS011;15921;52.034;20.650;2022-10-16T06:11:31;28.50;;;16.33;;
28766;SDS011;15921;52.034;20.650;2022-10-16T06:13:59;28.02;;;16.00;;
28766;SDS011;15921;52.034;20.650;2022-10-16T06:16:28;25.30;;;16.05;;
28766;SDS011;15921;52.034;20.650;2022-10-16T06:18:54;29.45;;;17.27;;
28766;SDS011;15921;52.034;20.650;2022-10-16T06:21:22;26.55;;;16.38;;
28766;SDS011;15921;52.034;20.650;2022-10-16T06:23:53;26.92;;;15.95;;
28766;SDS011;15921;52.034;20.650;2022-10-16T06:26:22;27.63;;;17.58;;
28766;SDS011;15921;52.034;20.650;2022-10-16T06:28:50;32.25;;;16.45;;
28766;SDS011;15921;52.034;20.650;2022-10-16T06:31:16;25.70;;;15.70;;
28766;SDS011;15921;52.034;20.650;2022-10-16T06:33:42;29.83;;;16.25;;
28766;SDS011;15921;52.034;20.650;2022-10-16T06:36:09;26.13;;;15.07;;
28766;SDS011;15921;52.034;20.650;2022-10-16T06:38:40;25.00;;;15.70;;
28766;SDS011;15921;52.034;20.650;2022-10-16T06:41:06;27.80;;;15.40;;
28766;SDS011;15921;52.034;20.650;2022-10-16T06:43:34;27.73;;;15.48;;
28766;SDS011;15921;52.034;20.650;2022-10-16T06:46:00;28.88;;;17.38;;
28766;SDS011;15921;52.034;20.650;2022-10-16T06:48:28;29.08;;;15.93;;
28766;SDS011;15921;52.034;20.650;2022-10-16T06:50:55;25.52;;;15.57;;
28766;SDS011;15921;52.034;20.650;2022-10-16T06:53:21;26.30;;;15.98;;
28766;SDS011;15921;52.034;20.650;2022-10-16T06:55:46;29.63;;;16.17;;
28766;SDS011;15921;52.034;20.650;2022-10-16T06:58:12;29.58;;;15.93;;
28766;SDS011;15921;52.034;20.650;2022-10-16T07:00:38;29.75;;;16.58;;
28766;SDS011;15921;52.034;20.650;2022-10-16T07:03:03;28.67;;;16.10;;
28766;SDS011;15921;52.034;20.650;2022-10-16T07:05:29;23.33;;;14.73;;
28766;SDS011;15921;52.034;20.650;2022-10-16T07:07:55;27.00;;;15.50;;
28766;SDS011;15921;52.034;20.650;2022-10-16T07:10:20;23.27;;;14.48;;
28766;SDS011;15921;52.034;20.650;2022-10-16T07:12:49;27.38;;;14.82;;
28766;SDS011;15921;52.034;20.650;2022-10-16T07:15:15;22.38;;;14.40;;
28766;SDS011;15921;52.034;20.650;2022-10-16T07:17:40;22.52;;;14.68;;
28766;SDS011;15921;52.034;20.650;2022-10-16T07:20:06;27.75;;;15.05;;
28766;SDS011;15921;52.034;20.650;2022-10-16T07:22:32;28.05;;;15.23;;
28766;SDS011;15921;52.034;20.650;2022-10-16T07:24:58;25.45;;;15.18;;
28766;SDS011;15921;52.034;20.650;2022-10-16T07:27:24;24.70;;;14.85;;
28766;SDS011;15921;52.034;20.650;2022-10-16T07:29:49;25.15;;;15.25;;
28766;SDS011;15921;52.034;20.650;2022-10-16T07:32:15;25.75;;;14.95;;
28766;SDS011;15921;52.034;20.650;2022-10-16T07:34:41;24.15;;;15.00;;
28766;SDS011;15921;52.034;20.650;2022-10-16T07:37:07;26.48;;;15.13;;
28766;SDS011;15921;52.034;20.650;2022-10-16T07:39:32;24.50;;;14.55;;
28766;SDS011;15921;52.034;20.650;2022-10-16T07:41:58;23.17;;;14.30;;
28766;SDS011;15921;52.034;20.650;2022-10-16T07:44:24;27.50;;;14.88;;
28766;SDS011;15921;52.034;20.650;2022-10-16T07:46:50;23.27;;;13.75;;
28766;SDS011;15921;52.034;20.650;2022-10-16T07:49:15;24.92;;;13.88;;
28766;SDS011;15921;52.034;20.650;2022-10-16T07:51:41;21.85;;;13.98;;
28766;SDS011;15921;52.034;20.650;2022-10-16T07:54:08;20.80;;;13.65;;
28766;SDS011;15921;52.034;20.650;2022-10-16T07:56:34;29.65;;;14.30;;
28766;SDS011;15921;52.034;20.650;2022-10-16T07:59:00;22.23;;;13.18;;
28766;SDS011;15921;52.034;20.650;2022-10-16T08:01:25;18.50;;;12.88;;
28766;SDS011;15921;52.034;20.650;2022-10-16T08:03:52;24.88;;;13.38;;
28766;SDS011;15921;52.034;20.650;2022-10-16T08:06:19;20.65;;;13.38;;
28766;SDS011;15921;52.034;20.650;2022-10-16T08:08:46;21.00;;;13.07;;
28766;SDS011;15921;52.034;20.650;2022-10-16T08:11:12;18.38;;;12.85;;
28766;SDS011;15921;52.034;20.650;2022-10-16T08:13:40;20.95;;;12.93;;
28766;SDS011;15921;52.034;20.650;2022-10-16T08:16:06;19.35;;;12.45;;
28766;SDS011;15921;52.034;20.650;2022-10-16T08:18:34;22.73;;;14.18;;
28766;SDS011;15921;52.034;20.650;2022-10-16T08:21:00;19.02;;;13.15;;
28766;SDS011;15921;52.034;20.650;2022-10-16T08:23:27;25.33;;;13.02;;
28766;SDS011;15921;52.034;20.650;2022-10-16T08:25:53;20.55;;;12.63;;
28766;SDS011;15921;52.034;20.650;2022-10-16T08:28:20;21.52;;;12.90;;
28766;SDS011;15921;52.034;20.650;2022-10-16T08:30:47;25.77;;;12.82;;
28766;SDS011;15921;52.034;20.650;2022-10-16T08:33:12;23.02;;;12.82;;
28766;SDS011;15921;52.034;20.650;2022-10-16T08:35:39;19.25;;;12.10;;
28766;SDS011;15921;52.034;20.650;2022-10-16T08:38:05;20.30;;;13.15;;
28766;SDS011;15921;52.034;20.650;2022-10-16T08:40:32;19.38;;;12.05;;
28766;SDS011;15921;52.034;20.650;2022-10-16T08:48:50;21.73;;;12.70;;
28766;SDS011;15921;52.034;20.650;2022-10-16T08:51:22;22.98;;;13.23;;
28766;SDS011;15921;52.034;20.650;2022-10-16T08:53:54;20.63;;;13.65;;
28766;SDS011;15921;52.034;20.650;2022-10-16T08:56:43;19.35;;;12.13;;
28766;SDS011;15921;52.034;20.650;2022-10-16T08:59:11;20.95;;;12.75;;
28766;SDS011;15921;52.034;20.650;2022-10-16T09:01:43;23.17;;;13.25;;
28766;SDS011;15921;52.034;20.650;2022-10-16T09:10:19;20.85;;;13.02;;
28766;SDS011;15921;52.034;20.650;2022-10-16T09:21:31;21.98;;;13.88;;
28766;SDS011;15921;52.034;20.650;2022-10-16T09:26:46;18.73;;;12.93;;
28766;SDS011;15921;52.034;20.650;2022-10-16T09:29:13;24.40;;;13.73;;
28766;SDS011;15921;52.034;20.650;2022-10-16T09:31:40;22.70;;;13.65;;
28766;SDS011;15921;52.034;20.650;2022-10-16T09:34:08;20.23;;;12.88;;
28766;SDS011;15921;52.034;20.650;2022-10-16T09:36:57;19.83;;;12.20;;
28766;SDS011;15921;52.034;20.650;2022-10-16T09:39:24;20.92;;;12.85;;
28766;SDS011;15921;52.034;20.650;2022-10-16T09:41:50;22.27;;;12.70;;
28766;SDS011;15921;52.034;20.650;2022-10-16T09:47:00;19.13;;;12.52;;
28766;SDS011;15921;52.034;20.650;2022-10-16T09:49:30;21.65;;;13.05;;
28766;SDS011;15921;52.034;20.650;2022-10-16T09:54:37;21.40;;;13.07;;
28766;SDS011;15921;52.034;20.650;2022-10-16T09:57:21;23.00;;;13.45;;
28766;SDS011;15921;52.034;20.650;2022-10-16T09:59:48;24.90;;;13.13;;
28766;SDS011;15921;52.034;20.650;2022-10-16T10:02:16;22.33;;;12.35;;
28766;SDS011;15921;52.034;20.650;2022-10-16T10:04:49;17.40;;;12.27;;
28766;SDS011;15921;52.034;20.650;2022-10-16T10:07:17;24.08;;;13.18;;
28766;SDS011;15921;52.034;20.650;2022-10-16T10:09:46;18.35;;;12.25;;
28766;SDS011;15921;52.034;20.650;2022-10-16T10:12:25;20.92;;;11.95;;
28766;SDS011;15921;52.034;20.650;2022-10-16T10:14:56;17.48;;;11.73;;
28766;SDS011;15921;52.034;20.650;2022-10-16T10:17:44;18.75;;;11.73;;
28766;SDS011;15921;52.034;20.650;2022-10-16T10:20:18;20.08;;;12.27;;
28766;SDS011;15921;52.034;20.650;2022-10-16T10:23:01;23.15;;;12.68;;
28766;SDS011;15921;52.034;20.650;2022-10-16T10:28:24;19.77;;;11.82;;
28766;SDS011;15921;52.034;20.650;2022-10-16T10:40:17;16.38;;;10.93;;
28766;SDS011;15921;52.034;20.650;2022-10-16T10:43:01;16.48;;;11.43;;
28766;SDS011;15921;52.034;20.650;2022-10-16T10:48:20;25.92;;;10.90;;
28766;SDS011;15921;52.034;20.650;2022-10-16T10:51:06;17.90;;;10.88;;
28766;SDS011;15921;52.034;20.650;2022-10-16T10:56:58;17.58;;;10.13;;
28766;SDS011;15921;52.034;20.650;2022-10-16T11:02:37;16.60;;;10.15;;
28766;SDS011;15921;52.034;20.650;2022-10-16T11:05:17;14.93;;;9.75;;
28766;SDS011;15921;52.034;20.650;2022-10-16T11:08:00;14.52;;;9.85;;
28766;SDS011;15921;52.034;20.650;2022-10-16T11:10:34;15.30;;;10.32;;
28766;SDS011;15921;52.034;20.650;2022-10-16T11:13:35;19.15;;;10.80;;
28766;SDS011;15921;52.034;20.650;2022-10-16T11:16:26;17.20;;;10.52;;
28766;SDS011;15921;52.034;20.650;2022-10-16T11:21:24;15.43;;;10.25;;
28766;SDS011;15921;52.034;20.650;2022-10-16T11:23:58;15.15;;;10.30;;
28766;SDS011;15921;52.034;20.650;2022-10-16T11:26:33;15.95;;;9.65;;
28766;SDS011;15921;52.034;20.650;2022-10-16T11:29:04;12.25;;;8.75;;
28766;SDS011;15921;52.034;20.650;2022-10-16T11:31:43;18.95;;;9.65;;
28766;SDS011;15921;52.034;20.650;2022-10-16T11:37:19;17.08;;;10.20;;
28766;SDS011;15921;52.034;20.650;2022-10-16T11:39:50;14.50;;;9.32;;
28766;SDS011;15921;52.034;20.650;2022-10-16T11:42:27;14.65;;;10.15;;
28766;SDS011;15921;52.034;20.650;2022-10-16T11:45:15;15.55;;;10.23;;
28766;SDS011;15921;52.034;20.650;2022-10-16T11:50:56;18.10;;;10.63;;
28766;SDS011;15921;52.034;20.650;2022-10-16T11:56:19;18.48;;;10.52;;
28766;SDS011;15921;52.034;20.650;2022-10-16T11:59:06;14.75;;;9.77;;
28766;SDS011;15921;52.034;20.650;2022-10-16T12:05:03;14.68;;;9.43;;
28766;SDS011;15921;52.034;20.650;2022-10-16T12:07:49;17.60;;;10.68;;
28766;SDS011;15921;52.034;20.650;2022-10-16T12:10:35;17.27;;;10.68;;
28766;SDS011;15921;52.034;20.650;2022-10-16T12:13:45;18.92;;;9.75;;
28766;SDS011;15921;52.034;20.650;2022-10-16T12:18:33;15.93;;;9.07;;
28766;SDS011;15921;52.034;20.650;2022-10-16T12:20:59;17.75;;;10.05;;
28766;SDS011;15921;52.034;20.650;2022-10-16T12:23:31;16.63;;;9.73;;
28766;SDS011;15921;52.034;20.650;2022-10-16T12:26:04;15.27;;;9.50;;
28766;SDS011;15921;52.034;20.650;2022-10-16T12:28:31;13.88;;;8.23;;
28766;SDS011;15921;52.034;20.650;2022-10-16T12:31:00;12.13;;;7.63;;
28766;SDS011;15921;52.034;20.650;2022-10-16T12:33:29;14.55;;;8.23;;
28766;SDS011;15921;52.034;20.650;2022-10-16T12:35:57;15.73;;;8.77;;
28766;SDS011;15921;52.034;20.650;2022-10-16T12:48:35;9.50;;;7.43;;
28766;SDS011;15921;52.034;20.650;2022-10-16T12:56:58;13.82;;;7.43;;
28766;SDS011;15921;52.034;20.650;2022-10-16T12:59:31;10.43;;;6.67;;
28766;SDS011;15921;52.034;20.650;2022-10-16T13:04:45;23.38;;;6.97;;
28766;SDS011;15921;52.034;20.650;2022-10-16T13:26:40;11.20;;;6.93;;
28766;SDS011;15921;52.034;20.650;2022-10-16T13:29:12;18.55;;;8.60;;
28766;SDS011;15921;52.034;20.650;2022-10-16T13:31:38;12.88;;;8.38;;
28766;SDS011;15921;52.034;20.650;2022-10-16T13:34:05;13.45;;;8.95;;
28766;SDS011;15921;52.034;20.650;2022-10-16T13:36:47;17.42;;;9.07;;
28766;SDS011;15921;52.034;20.650;2022-10-16T13:39:27;13.70;;;9.05;;
28766;SDS011;15921;52.034;20.650;2022-10-16T13:42:37;16.25;;;9.43;;
28766;SDS011;15921;52.034;20.650;2022-10-16T13:44:51;16.35;;;8.68;;
28766;SDS011;15921;52.034;20.650;2022-10-16T13:47:19;11.75;;;8.02;;
28766;SDS011;15921;52.034;20.650;2022-10-16T13:49:58;11.35;;;8.15;;
28766;SDS011;15921;52.034;20.650;2022-10-16T13:52:29;14.45;;;9.00;;
28766;SDS011;15921;52.034;20.650;2022-10-16T13:54:55;15.45;;;9.57;;
28766;SDS011;15921;52.034;20.650;2022-10-16T13:57:22;14.10;;;9.43;;
28766;SDS011;15921;52.034;20.650;2022-10-16T13:59:49;16.13;;;8.57;;
28766;SDS011;15921;52.034;20.650;2022-10-16T14:04:51;11.85;;;7.90;;
28766;SDS011;15921;52.034;20.650;2022-10-16T14:07:23;12.75;;;8.43;;
28766;SDS011;15921;52.034;20.650;2022-10-16T14:09:52;14.40;;;9.27;;
28766;SDS011;15921;52.034;20.650;2022-10-16T14:12:19;16.80;;;9.57;;
28766;SDS011;15921;52.034;20.650;2022-10-16T14:14:47;13.77;;;8.63;;
28766;SDS011;15921;52.034;20.650;2022-10-16T14:17:18;13.77;;;9.10;;
28766;SDS011;15921;52.034;20.650;2022-10-16T14:19:47;11.23;;;8.32;;
28766;SDS011;15921;52.034;20.650;2022-10-16T14:24:55;15.10;;;9.18;;
28766;SDS011;15921;52.034;20.650;2022-10-16T14:27:26;15.32;;;7.70;;
28766;SDS011;15921;52.034;20.650;2022-10-16T14:32:39;14.82;;;9.27;;
28766;SDS011;15921;52.034;20.650;2022-10-16T14:35:22;18.80;;;10.00;;
28766;SDS011;15921;52.034;20.650;2022-10-16T14:37:53;22.88;;;13.82;;
28766;SDS011;15921;52.034;20.650;2022-10-16T14:40:20;18.73;;;11.98;;
28766;SDS011;15921;52.034;20.650;2022-10-16T14:42:50;14.43;;;9.73;;
28766;SDS011;15921;52.034;20.650;2022-10-16T14:45:24;20.98;;;9.90;;
28766;SDS011;15921;52.034;20.650;2022-10-16T14:47:56;10.88;;;8.68;;
28766;SDS011;15921;52.034;20.650;2022-10-16T14:50:23;11.85;;;8.18;;
28766;SDS011;15921;52.034;20.650;2022-10-16T14:52:49;13.73;;;8.07;;
28766;SDS011;15921;52.034;20.650;2022-10-16T14:55:15;12.60;;;9.15;;
28766;SDS011;15921;52.034;20.650;2022-10-16T14:57:42;28.05;;;9.32;;
28766;SDS011;15921;52.034;20.650;2022-10-16T15:00:17;12.90;;;8.63;;
28766;SDS011;15921;52.034;20.650;2022-10-16T15:02:45;14.40;;;9.23;;
28766;SDS011;15921;52.034;20.650;2022-10-16T15:05:17;14.38;;;9.93;;
28766;SDS011;15921;52.034;20.650;2022-10-16T15:07:51;14.45;;;9.40;;
28766;SDS011;15921;52.034;20.650;2022-10-16T15:10:18;16.70;;;9.10;;
28766;SDS011;15921;52.034;20.650;2022-10-16T15:12:49;16.88;;;10.13;;
28766;SDS011;15921;52.034;20.650;2022-10-16T15:18:05;27.95;;;12.85;;
28766;SDS011;15921;52.034;20.650;2022-10-16T15:20:32;20.98;;;13.63;;
28766;SDS011;15921;52.034;20.650;2022-10-16T15:23:03;21.95;;;13.63;;
28766;SDS011;15921;52.034;20.650;2022-10-16T15:25:39;19.45;;;12.05;;
28766;SDS011;15921;52.034;20.650;2022-10-16T15:28:17;23.13;;;14.32;;
28766;SDS011;15921;52.034;20.650;2022-10-16T15:30:44;21.13;;;13.23;;
28766;SDS011;15921;52.034;20.650;2022-10-16T15:33:12;25.45;;;14.57;;
28766;SDS011;15921;52.034;20.650;2022-10-16T15:35:57;24.17;;;14.13;;
28766;SDS011;15921;52.034;20.650;2022-10-16T15:38:23;28.70;;;16.65;;
28766;SDS011;15921;52.034;20.650;2022-10-16T15:40:51;31.48;;;18.85;;
28766;SDS011;15921;52.034;20.650;2022-10-16T15:43:17;35.35;;;20.25;;
28766;SDS011;15921;52.034;20.650;2022-10-16T15:45:43;36.88;;;19.70;;
28766;SDS011;15921;52.034;20.650;2022-10-16T15:48:16;28.65;;;16.48;;
28766;SDS011;15921;52.034;20.650;2022-10-16T15:50:42;26.85;;;15.93;;
28766;SDS011;15921;52.034;20.650;2022-10-16T15:53:08;25.17;;;14.85;;
28766;SDS011;15921;52.034;20.650;2022-10-16T15:55:33;21.75;;;13.35;;
28766;SDS011;15921;52.034;20.650;2022-10-16T15:58:02;18.73;;;12.20;;
28766;SDS011;15921;52.034;20.650;2022-10-16T16:00:29;19.73;;;12.32;;
28766;SDS011;15921;52.034;20.650;2022-10-16T16:02:55;24.00;;;11.10;;
28766;SDS011;15921;52.034;20.650;2022-10-16T16:05:21;21.38;;;11.70;;
28766;SDS011;15921;52.034;20.650;2022-10-16T16:07:47;20.75;;;12.32;;
28766;SDS011;15921;52.034;20.650;2022-10-16T16:10:13;23.08;;;13.27;;
28766;SDS011;15921;52.034;20.650;2022-10-16T16:12:39;22.58;;;12.38;;
28766;SDS011;15921;52.034;20.650;2022-10-16T16:15:05;19.00;;;13.93;;
28766;SDS011;15921;52.034;20.650;2022-10-16T16:17:33;20.77;;;13.50;;
28766;SDS011;15921;52.034;20.650;2022-10-16T16:19:59;22.48;;;15.07;;
28766;SDS011;15921;52.034;20.650;2022-10-16T16:22:25;23.20;;;15.88;;
28766;SDS011;15921;52.034;20.650;2022-10-16T16:24:52;25.15;;;15.98;;
28766;SDS011;15921;52.034;20.650;2022-10-16T16:27:18;22.70;;;15.45;;
28766;SDS011;15921;52.034;20.650;2022-10-16T16:29:44;26.38;;;16.33;;
28766;SDS011;15921;52.034;20.650;2022-10-16T16:32:11;25.55;;;14.90;;
28766;SDS011;15921;52.034;20.650;2022-10-16T16:34:37;25.67;;;15.88;;
28766;SDS011;15921;52.034;20.650;2022-10-16T16:37:03;24.25;;;15.73;;
28766;SDS011;15921;52.034;20.650;2022-10-16T16:39:29;22.02;;;15.13;;
28766;SDS011;15921;52.034;20.650;2022-10-16T16:41:55;21.08;;;14.10;;
28766;SDS011;15921;52.034;20.650;2022-10-16T16:44:23;22.55;;;13.77;;
28766;SDS011;15921;52.034;20.650;2022-10-16T16:46:49;21.58;;;13.95;;